createdAt,value
2023-04-02T00:00:05.822Z,95917.94
2023-04-02T00:02:33.176Z,95921.72
2023-04-02T00:05:16.609Z,95917.41
2023-04-02T00:07:44.764Z,95918.53
2023-04-02T00:10:36.982Z,95924.13
2023-04-02T00:13:05.732Z,95927.59
2023-04-02T00:15:33.096Z,95931.91
2023-04-02T00:18:00.792Z,95933.50
2023-04-02T00:20:30.976Z,95931.81
2023-04-02T00:22:57.822Z,95938.28
2023-04-02T00:25:28.406Z,95927.53
2023-04-02T00:27:56.816Z,95941.47
2023-04-02T00:30:23.751Z,95934.81
2023-04-02T00:32:52.049Z,95932.91
2023-04-02T00:35:28.618Z,95942.56
2023-04-02T00:37:56.647Z,95936.69
2023-04-02T00:40:29.370Z,95936.09
2023-04-02T00:42:59.872Z,95935.59
2023-04-02T00:45:30.019Z,95942.28
2023-04-02T00:47:59.392Z,95948.47
2023-04-02T00:50:39.493Z,95948.97
2023-04-02T00:53:16.516Z,95942.56
2023-04-02T00:55:44.064Z,95948.75
2023-04-02T00:58:27.671Z,95953.25
2023-04-02T01:00:54.892Z,95959.16
2023-04-02T01:03:22.980Z,95956.44
2023-04-02T01:05:56.262Z,95956.44
2023-04-02T01:08:49.058Z,95961.03
2023-04-02T01:11:28.643Z,95959.75
2023-04-02T01:14:06.752Z,95952.25
2023-04-02T01:17:00.671Z,95962.03
2023-04-02T01:19:39.371Z,95970.81
2023-04-02T01:22:18.939Z,95967.25
2023-04-02T01:24:46.299Z,95971.22
2023-04-02T01:27:25.021Z,95970.13
2023-04-02T01:30:03.133Z,95967.44
2023-04-02T01:32:31.446Z,95973.63
2023-04-02T01:34:58.562Z,95971.66
2023-04-02T01:37:47.115Z,95980.25
2023-04-02T01:40:22.754Z,95973.75
2023-04-02T01:43:19.976Z,95977.22
2023-04-02T01:45:46.895Z,95970.13
2023-04-02T01:48:24.822Z,95981.81
2023-04-02T01:50:55.075Z,95981.53
2023-04-02T01:53:24.871Z,95976.44
2023-04-02T01:55:56.745Z,95979.66
2023-04-02T01:58:26.461Z,95973.25
2023-04-02T02:00:59.971Z,95972.16
2023-04-02T02:03:26.669Z,95985.22
2023-04-02T02:05:53.425Z,95981.44
2023-04-02T02:08:31.906Z,95985.44
2023-04-02T02:10:59.077Z,95990.19
2023-04-02T02:13:25.771Z,95991.31
2023-04-02T02:15:52.922Z,95997.22
2023-04-02T02:18:23.570Z,96002.00
2023-04-02T02:20:52.306Z,96004.50
2023-04-02T02:23:20.353Z,96004.97
2023-04-02T02:25:48.288Z,95998.09
2023-04-02T02:28:26.637Z,96004.78
2023-04-02T02:30:59.059Z,96005.38
2023-04-02T02:33:42.620Z,96000.50
2023-04-02T02:36:23.138Z,96006.19
2023-04-02T02:39:11.034Z,96010.50
2023-04-02T02:42:03.876Z,96006.19
2023-04-02T02:44:35.482Z,96001.41
2023-04-02T02:47:06.898Z,96015.69
2023-04-02T02:49:41.047Z,96010.28
2023-04-02T02:52:10.770Z,96010.56
2023-04-02T02:54:43.335Z,96015.69
2023-04-02T02:57:20.412Z,96014.38
2023-04-02T02:59:47.755Z,96016.28
2023-04-02T03:02:16.295Z,96013.59
2023-04-02T03:04:47.750Z,96011.19
2023-04-02T03:07:16.363Z,96015.75
2023-04-02T03:09:54.745Z,96020.38
2023-04-02T03:12:42.268Z,96013.91
2023-04-02T03:15:21.290Z,96017.19
2023-04-02T03:18:02.066Z,96022.56
2023-04-02T03:20:37.599Z,96022.25
2023-04-02T03:23:17.939Z,96027.66
2023-04-02T03:26:31.438Z,96028.75
2023-04-02T03:29:27.362Z,96035.25
2023-04-02T03:32:28.638Z,96030.66
2023-04-02T03:35:06.709Z,96035.75
2023-04-02T03:37:42.271Z,96042.53
2023-04-02T03:40:15.920Z,96043.34
2023-04-02T03:42:49.421Z,96047.13
2023-04-02T03:45:33.161Z,96049.00
2023-04-02T03:47:59.866Z,96060.09
2023-04-02T03:50:34.625Z,96058.78
2023-04-02T03:53:03.615Z,96059.78
2023-04-02T03:55:38.077Z,96061.19
2023-04-02T03:58:23.153Z,96063.28
2023-04-02T04:01:00.169Z,96076.19
2023-04-02T04:03:38.905Z,96070.78
2023-04-02T04:06:10.842Z,96072.88
2023-04-02T04:08:44.904Z,96083.66
2023-04-02T04:11:17.325Z,96081.78
2023-04-02T04:13:56.372Z,96080.97
2023-04-02T04:16:31.506Z,96082.56
2023-04-02T04:19:14.881Z,96091.75
2023-04-02T04:21:45.240Z,96088.75
2023-04-02T04:24:28.540Z,96081.78
2023-04-02T04:27:20.526Z,96086.38
2023-04-02T04:29:56.352Z,96091.25
2023-04-02T04:32:27.825Z,96095.56
2023-04-02T04:35:01.110Z,96095.56
2023-04-02T04:37:35.321Z,96100.16
2023-04-02T04:40:11.994Z,96103.94
2023-04-02T04:42:43.592Z,96095.03
2023-04-02T04:45:28.697Z,96103.66
2023-04-02T04:48:01.396Z,96098.84
2023-04-02T04:50:38.562Z,96105.25
2023-04-02T04:53:07.390Z,96110.03
2023-04-02T04:55:44.332Z,96114.63
2023-04-02T04:58:40.810Z,96116.44
2023-04-02T05:01:10.553Z,96117.75
2023-04-02T05:03:59.526Z,96123.94
2023-04-02T05:06:37.036Z,96126.63
2023-04-02T05:09:15.732Z,96124.22
2023-04-02T05:11:47.264Z,96114.44
2023-04-02T05:14:24.228Z,96122.72
2023-04-02T05:17:02.454Z,96126.44
2023-04-02T05:19:51.890Z,96125.03
2023-04-02T05:22:35.636Z,96127.44
2023-04-02T05:25:15.771Z,96132.84
2023-04-02T05:27:53.094Z,96133.03
2023-04-02T05:30:29.631Z,96129.25
2023-04-02T05:33:23.476Z,96135.13
2023-04-02T05:35:58.009Z,96139.13
2023-04-02T05:38:28.395Z,96132.34
2023-04-02T05:41:12.030Z,96139.84
2023-04-02T05:43:44.171Z,96139.06
2023-04-02T05:46:22.600Z,96139.22
2023-04-02T05:48:55.372Z,96136.34
2023-04-02T05:51:37.402Z,96152.91
2023-04-02T05:54:06.684Z,96154.81
2023-04-02T05:56:43.190Z,96156.72
2023-04-02T05:59:21.768Z,96158.22
2023-04-02T06:02:17.507Z,96158.13
2023-04-02T06:05:11.567Z,96163.91
2023-04-02T06:07:52.238Z,96167.41
2023-04-02T06:10:25.138Z,96173.72
2023-04-02T06:12:56.174Z,96182.50
2023-04-02T06:15:24.539Z,96180.81
2023-04-02T06:18:09.155Z,96181.81
2023-04-02T06:20:36.079Z,96178.50
2023-04-02T06:23:10.067Z,96185.41
2023-04-02T06:25:46.407Z,96178.59
2023-04-02T06:28:17.487Z,96184.81
2023-04-02T06:30:44.475Z,96188.50
2023-04-02T06:33:15.700Z,96186.00
2023-04-02T06:35:46.525Z,96188.88
2023-04-02T06:38:20.622Z,96189.38
2023-04-02T06:40:52.693Z,96195.47
2023-04-02T06:43:36.478Z,96192.19
2023-04-02T06:46:10.073Z,96192.38
2023-04-02T06:48:38.531Z,96201.47
2023-04-02T06:51:11.912Z,96201.94
2023-04-02T06:53:45.981Z,96191.13
2023-04-02T06:56:32.051Z,96207.44
2023-04-02T06:58:59.490Z,96202.03
2023-04-02T07:01:30.148Z,96204.63
2023-04-02T07:03:57.744Z,96217.72
2023-04-02T07:06:25.072Z,96217.41
2023-04-02T07:08:51.770Z,96218.09
2023-04-02T07:11:22.039Z,96216.38
2023-04-02T07:13:50.034Z,96221.38
2023-04-02T07:16:22.021Z,96213.47
2023-04-02T07:18:49.635Z,96224.28
2023-04-02T07:21:16.881Z,96226.28
2023-04-02T07:23:43.516Z,96229.34
2023-04-02T07:26:16.044Z,96233.53
2023-04-02T07:28:43.159Z,96239.78
2023-04-02T07:31:16.885Z,96239.19
2023-04-02T07:33:44.082Z,96232.81
2023-04-02T07:36:16.558Z,96247.81
2023-04-02T07:38:43.822Z,96252.72
2023-04-02T07:41:11.643Z,96246.63
2023-04-02T07:43:39.236Z,96256.53
2023-04-02T07:46:06.842Z,96248.41
2023-04-02T07:48:33.719Z,96255.09
2023-04-02T07:51:03.211Z,96244.59
2023-04-02T07:53:36.009Z,96253.09
2023-04-02T07:56:04.101Z,96262.88
2023-04-02T07:58:32.112Z,96266.75
2023-04-02T08:01:01.822Z,96265.19
2023-04-02T08:03:29.110Z,96271.78
2023-04-02T08:05:58.209Z,96269.44
2023-04-02T08:08:26.364Z,96272.00
2023-04-02T08:10:53.121Z,96266.75
2023-04-02T08:13:21.161Z,96272.34
2023-04-02T08:15:48.441Z,96264.72
2023-04-02T08:18:15.360Z,96268.53
2023-04-02T08:20:42.305Z,96264.09
2023-04-02T08:23:21.105Z,96277.19
2023-04-02T08:25:48.314Z,96280.69
2023-04-02T08:28:15.089Z,96281.69
2023-04-02T08:30:42.414Z,96288.69
2023-04-02T08:33:09.129Z,96278.31
2023-04-02T08:35:35.990Z,96282.31
2023-04-02T08:38:03.427Z,96277.63
2023-04-02T08:40:38.996Z,96295.53
2023-04-02T08:43:13.303Z,96291.41
2023-04-02T08:46:04.742Z,96289.69
2023-04-02T08:48:33.896Z,96294.31
2023-04-02T08:51:03.194Z,96296.41
2023-04-02T08:53:35.878Z,96295.78
2023-04-02T08:56:19.898Z,96308.56
2023-04-02T08:58:56.316Z,96305.25
2023-04-02T09:01:31.504Z,96306.72
2023-04-02T09:03:59.790Z,96305.44
2023-04-02T09:06:29.305Z,96312.94
2023-04-02T09:08:58.519Z,96314.91
2023-04-02T09:11:30.709Z,96313.19
2023-04-02T09:14:00.355Z,96312.25
2023-04-02T09:16:45.706Z,96313.53
2023-04-02T09:19:19.173Z,96318.31
2023-04-02T09:22:17.827Z,96315.44
2023-04-02T09:24:44.708Z,96319.44
2023-04-02T09:27:20.131Z,96317.88
2023-04-02T09:29:49.845Z,96333.50
2023-04-02T09:32:44.504Z,96332.56
2023-04-02T09:35:26.115Z,96330.34
2023-04-02T09:38:23.537Z,96322.22
2023-04-02T09:41:03.980Z,96328.41
2023-04-02T09:43:36.523Z,96329.22
2023-04-02T09:46:05.084Z,96340.69
2023-04-02T09:48:39.698Z,96338.47
2023-04-02T09:51:08.323Z,96336.25
2023-04-02T09:53:39.889Z,96334.34
2023-04-02T09:56:28.630Z,96343.75
2023-04-02T09:59:05.573Z,96332.28
2023-04-02T10:01:48.186Z,96330.84
2023-04-02T10:04:39.311Z,96334.19
2023-04-02T10:07:07.270Z,96332.28
2023-04-02T10:09:36.821Z,96330.69
2023-04-02T10:12:07.793Z,96331.81
2023-04-02T10:14:43.671Z,96340.56
2023-04-02T10:17:28.230Z,96336.75
2023-04-02T10:20:01.210Z,96341.38
2023-04-02T10:22:28.417Z,96334.53
2023-04-02T10:24:55.563Z,96346.78
2023-04-02T10:27:42.582Z,96341.06
2023-04-02T10:30:34.407Z,96346.00
2023-04-02T10:33:08.905Z,96344.44
2023-04-02T10:35:59.857Z,96345.41
2023-04-02T10:38:35.700Z,96338.84
2023-04-02T10:41:21.274Z,96338.53
2023-04-02T10:44:18.937Z,96332.47
2023-04-02T10:46:55.044Z,96342.84
2023-04-02T10:49:33.981Z,96347.97
2023-04-02T10:52:13.752Z,96341.56
2023-04-02T10:54:51.587Z,96348.41
2023-04-02T10:57:30.990Z,96330.38
2023-04-02T11:00:10.793Z,96344.59
2023-04-02T11:02:46.944Z,96346.19
2023-04-02T11:05:23.926Z,96338.19
2023-04-02T11:07:59.161Z,96339.47
2023-04-02T11:10:30.185Z,96342.50
2023-04-02T11:13:03.514Z,96349.53
2023-04-02T11:15:31.202Z,96348.09
2023-04-02T11:17:58.342Z,96345.88
2023-04-02T11:20:48.251Z,96346.66
2023-04-02T11:23:19.240Z,96342.34
2023-04-02T11:25:47.891Z,96339.34
2023-04-02T11:28:19.502Z,96330.53
2023-04-02T11:30:48.980Z,96335.97
2023-04-02T11:33:44.610Z,96342.84
2023-04-02T11:36:49.749Z,96345.09
2023-04-02T11:39:47.211Z,96339.03
2023-04-02T11:42:19.812Z,96340.47
2023-04-02T11:44:46.880Z,96345.72
2023-04-02T11:47:16.613Z,96342.84
2023-04-02T11:49:55.834Z,96346.19
2023-04-02T11:52:42.892Z,96344.63
2023-04-02T11:55:24.501Z,96348.44
2023-04-02T11:58:11.456Z,96336.09
2023-04-02T12:01:18.488Z,96342.53
2023-04-02T12:04:01.944Z,96339.31
2023-04-02T12:07:17.629Z,96333.72
2023-04-02T12:09:49.775Z,96349.72
2023-04-02T12:12:27.164Z,96340.94
2023-04-02T12:14:57.546Z,96348.41
2023-04-02T12:17:34.153Z,96351.63
2023-04-02T12:20:08.450Z,96341.25
2023-04-02T12:22:47.707Z,96338.53
2023-04-02T12:25:32.588Z,96339.00
2023-04-02T12:28:18.111Z,96334.84
2023-04-02T12:30:48.816Z,96338.81
2023-04-02T12:33:15.707Z,96332.09
2023-04-02T12:35:44.019Z,96331.44
2023-04-02T12:38:45.047Z,96336.69
2023-04-02T12:41:21.632Z,96344.03
2023-04-02T12:44:00.553Z,96341.00
2023-04-02T12:46:28.784Z,96342.41
2023-04-02T12:49:04.368Z,96348.81
2023-04-02T12:51:31.189Z,96355.38
2023-04-02T12:53:58.292Z,96345.78
2023-04-02T12:56:25.336Z,96362.44
2023-04-02T12:59:01.521Z,96348.88
2023-04-02T13:01:32.072Z,96351.75
2023-04-02T13:04:12.517Z,96352.25
2023-04-02T13:06:50.147Z,96344.91
2023-04-02T13:09:47.764Z,96352.25
2023-04-02T13:12:25.259Z,96353.09
2023-04-02T13:15:03.828Z,96361.69
2023-04-02T13:17:41.243Z,96348.44
2023-04-02T13:20:29.880Z,96367.28
2023-04-02T13:22:57.652Z,96363.78
2023-04-02T13:25:35.448Z,96358.50
2023-04-02T13:28:02.836Z,96355.63
2023-04-02T13:30:29.589Z,96362.16
2023-04-02T13:32:56.898Z,96360.72
2023-04-02T13:35:23.795Z,96364.91
2023-04-02T13:37:50.477Z,96360.22
2023-04-02T13:40:19.308Z,96368.09
2023-04-02T13:42:47.607Z,96374.50
2023-04-02T13:45:38.263Z,96378.84
2023-04-02T13:48:06.409Z,96376.94
2023-04-02T13:50:35.298Z,96372.56
2023-04-02T13:53:10.257Z,96368.47
2023-04-02T13:55:40.698Z,96371.50
2023-04-02T13:58:07.465Z,96379.28
2023-04-02T14:00:38.036Z,96370.56
2023-04-02T14:03:25.469Z,96384.28
2023-04-02T14:05:58.420Z,96379.81
2023-04-02T14:08:32.869Z,96382.59
2023-04-02T14:11:11.811Z,96383.59
2023-04-02T14:13:53.807Z,96378.38
2023-04-02T14:16:23.387Z,96382.69
2023-04-02T14:19:18.188Z,96385.28
2023-04-02T14:21:51.165Z,96388.44
2023-04-02T14:24:34.730Z,96376.34
2023-04-02T14:27:19.803Z,96373.31
2023-04-02T14:29:52.851Z,96383.59
2023-04-02T14:32:34.853Z,96386.81
2023-04-02T14:35:24.196Z,96379.78
2023-04-02T14:38:14.068Z,96389.31
2023-04-02T14:41:45.394Z,96390.25
2023-04-02T14:44:14.047Z,96379.53
2023-04-02T14:46:41.987Z,96381.75
2023-04-02T14:49:25.021Z,96382.50
2023-04-02T14:51:53.358Z,96398.13
2023-04-02T14:54:34.573Z,96396.53
2023-04-02T14:57:17.015Z,96397.03
2023-04-02T14:59:56.975Z,96391.63
2023-04-02T15:02:49.167Z,96392.41
2023-04-02T15:05:24.632Z,96395.41
2023-04-02T15:08:01.563Z,96387.78
2023-04-02T15:10:34.702Z,96395.72
2023-04-02T15:13:08.582Z,96407.97
2023-04-02T15:15:58.977Z,96417.19
2023-04-02T15:18:25.774Z,96413.44
2023-04-02T15:21:01.622Z,96425.41
2023-04-02T15:24:03.918Z,96434.22
2023-04-02T15:26:53.108Z,96450.88
2023-04-02T15:29:44.292Z,96439.34
2023-04-02T15:32:32.377Z,96444.16
2023-04-02T15:35:20.795Z,96455.06
2023-04-02T15:38:11.920Z,96450.56
2023-04-02T15:40:44.116Z,96453.38
2023-04-02T15:43:25.988Z,96453.06
2023-04-02T15:46:18.871Z,96454.97
2023-04-02T15:49:09.876Z,96459.59
2023-04-02T15:51:56.861Z,96467.19
2023-04-02T15:54:41.192Z,96472.13
2023-04-02T15:57:45.733Z,96471.59
2023-04-02T16:00:24.422Z,96472.63
2023-04-02T16:02:52.319Z,96481.41
2023-04-02T16:05:51.336Z,96478.72
2023-04-02T16:08:53.085Z,96482.22
2023-04-02T16:11:20.921Z,96483.53
2023-04-02T16:13:47.528Z,96483.22
2023-04-02T16:16:34.898Z,96477.53
2023-04-02T16:19:22.834Z,96475.63
2023-04-02T16:22:20.533Z,96472.91
2023-04-02T16:24:50.379Z,96478.00
2023-04-02T16:27:24.912Z,96471.13
2023-04-02T16:30:08.549Z,96479.91
2023-04-02T16:33:03.393Z,96483.84
2023-04-02T16:35:43.109Z,96500.28
2023-04-02T16:38:38.168Z,96491.66
2023-04-02T16:41:13.630Z,96494.16
2023-04-02T16:44:02.062Z,96499.03
2023-04-02T16:46:43.316Z,96486.19
2023-04-02T16:49:36.316Z,96491.03
2023-04-02T16:52:02.970Z,96495.66
2023-04-02T16:54:46.779Z,96500.03
2023-04-02T16:57:25.054Z,96495.19
2023-04-02T16:59:54.907Z,96500.59
2023-04-02T17:02:31.431Z,96498.81
2023-04-02T17:05:32.868Z,96500.00
2023-04-02T17:08:47.216Z,96499.28
2023-04-02T17:11:23.647Z,96506.88
2023-04-02T17:14:06.420Z,96509.16
2023-04-02T17:16:43.297Z,96496.03
2023-04-02T17:19:15.214Z,96502.53
2023-04-02T17:21:47.761Z,96500.59
2023-04-02T17:24:17.358Z,96510.81
2023-04-02T17:26:48.708Z,96516.00
2023-04-02T17:29:21.845Z,96513.88
2023-04-02T17:31:50.506Z,96511.50
2023-04-02T17:34:20.916Z,96506.91
2023-04-02T17:37:22.930Z,96505.00
2023-04-02T17:40:10.721Z,96496.25
2023-04-02T17:42:46.532Z,96489.94
2023-04-02T17:45:29.177Z,96510.28
2023-04-02T17:48:08.381Z,96517.38
2023-04-02T17:50:54.480Z,96515.25
2023-04-02T17:53:21.993Z,96519.63
2023-04-02T17:55:54.485Z,96527.22
2023-04-02T17:58:30.336Z,96527.22
2023-04-02T18:01:23.366Z,96536.41
2023-04-02T18:04:41.804Z,96536.09
2023-04-02T18:07:45.412Z,96528.63
2023-04-02T18:10:33.580Z,96535.41
2023-04-02T18:13:12.588Z,96541.09
2023-04-02T18:15:48.708Z,96544.59
2023-04-02T18:18:48.527Z,96546.78
2023-04-02T18:21:19.064Z,96556.78
2023-04-02T18:23:54.560Z,96554.97
2023-04-02T18:26:42.261Z,96566.84
2023-04-02T18:29:21.038Z,96564.13
2023-04-02T18:32:17.553Z,96566.13
2023-04-02T18:34:44.921Z,96565.88
2023-04-02T18:37:33.186Z,96576.25
2023-04-02T18:40:26.157Z,96574.53
2023-04-02T18:43:13.566Z,96602.31
2023-04-02T18:45:55.727Z,96614.50
2023-04-02T18:48:41.197Z,96611.28
2023-04-02T18:51:22.165Z,96612.63
2023-04-02T18:54:09.047Z,96597.81
2023-04-02T18:56:40.633Z,96604.06
2023-04-02T18:59:19.424Z,96607.78
2023-04-02T19:01:52.305Z,96605.44
2023-04-02T19:04:34.914Z,96613.19
2023-04-02T19:07:11.714Z,96613.19
2023-04-02T19:09:47.869Z,96616.72
2023-04-02T19:12:20.305Z,96610.06
2023-04-02T19:14:50.948Z,96613.59
2023-04-02T19:17:30.938Z,96622.44
2023-04-02T19:20:33.097Z,96616.22
2023-04-02T19:23:30.862Z,96618.16
2023-04-02T19:26:06.303Z,96612.84
2023-04-02T19:28:42.014Z,96607.50
2023-04-02T19:31:24.933Z,96609.38
2023-04-02T19:34:25.419Z,96609.63
2023-04-02T19:37:00.861Z,96613.16
2023-04-02T19:39:58.750Z,96609.03
2023-04-02T19:42:41.815Z,96615.47
2023-04-02T19:45:43.342Z,96614.09
2023-04-02T19:48:21.947Z,96619.72
2023-04-02T19:50:49.617Z,96609.75
2023-04-02T19:53:17.590Z,96608.38
2023-04-02T19:55:45.595Z,96621.56
2023-04-02T19:58:33.518Z,96618.84
2023-04-02T20:01:01.073Z,96621.56
2023-04-02T20:03:28.211Z,96615.94
2023-04-02T20:05:55.047Z,96630.44
2023-04-02T20:08:21.903Z,96626.94
2023-04-02T20:10:48.761Z,96618.41
2023-04-02T20:13:15.482Z,96632.13
2023-04-02T20:15:42.184Z,96627.66
2023-04-02T20:18:10.624Z,96640.06
2023-04-02T20:20:39.291Z,96646.81
2023-04-02T20:23:06.472Z,96642.50
2023-04-02T20:25:33.070Z,96657.09
2023-04-02T20:28:01.086Z,96648.78
2023-04-02T20:30:27.859Z,96660.28
2023-04-02T20:32:55.706Z,96660.28
2023-04-02T20:35:22.473Z,96663.28
2023-04-02T20:37:49.346Z,96659.81
2023-04-02T20:40:16.089Z,96652.91
2023-04-02T20:42:42.796Z,96660.69
2023-04-02T20:45:10.148Z,96660.19
2023-04-02T20:47:36.867Z,96665.84
2023-04-02T20:50:03.753Z,96663.22
2023-04-02T20:52:32.603Z,96669.69
2023-04-02T20:54:59.215Z,96659.25
2023-04-02T20:57:27.674Z,96671.88
2023-04-02T20:59:54.871Z,96665.44
2023-04-02T21:02:21.708Z,96663.25
2023-04-02T21:04:48.401Z,96665.13
2023-04-02T21:07:15.644Z,96669.16
2023-04-02T21:09:42.256Z,96664.56
2023-04-02T21:12:08.929Z,96665.38
2023-04-02T21:14:39.063Z,96661.09
2023-04-02T21:17:07.429Z,96649.75
2023-04-02T21:19:35.297Z,96653.84
2023-04-02T21:22:02.719Z,96643.88
2023-04-02T21:24:29.550Z,96659.41
2023-04-02T21:26:56.249Z,96654.56
2023-04-02T21:29:22.931Z,96656.44
2023-04-02T21:31:50.456Z,96654.31
2023-04-02T21:34:17.182Z,96658.88
2023-04-02T21:36:46.358Z,96665.38
2023-04-02T21:39:18.626Z,96669.69
2023-04-02T21:41:46.859Z,96672.38
2023-04-02T21:44:15.788Z,96669.69
2023-04-02T21:46:43.119Z,96671.31
2023-04-02T21:49:12.648Z,96668.31
2023-04-02T21:51:41.251Z,96659.41
2023-04-02T21:54:08.516Z,96661.88
2023-04-02T21:56:37.725Z,96653.00
2023-04-02T21:59:06.369Z,96654.88
2023-04-02T22:01:36.154Z,96655.75
2023-04-02T22:04:04.892Z,96654.34
2023-04-02T22:06:35.858Z,96647.06
2023-04-02T22:09:06.451Z,96646.56
2023-04-02T22:11:36.814Z,96649.53
2023-04-02T22:14:04.316Z,96655.97
2023-04-02T22:16:32.534Z,96643.88
2023-04-02T22:19:02.132Z,96638.00
2023-04-02T22:21:30.539Z,96644.13
2023-04-02T22:24:01.043Z,96652.22
2023-04-02T22:26:28.261Z,96638.75
2023-04-02T22:28:54.910Z,96642.28
2023-04-02T22:31:24.398Z,96638.50
2023-04-02T22:33:52.591Z,96649.03
2023-04-02T22:36:22.026Z,96654.66
2023-04-02T22:38:49.418Z,96643.88
2023-04-02T22:41:26.338Z,96648.47
2023-04-02T22:43:54.057Z,96646.81
2023-04-02T22:46:21.796Z,96644.44
2023-04-02T22:48:49.581Z,96649.81
2023-04-02T22:51:18.877Z,96646.88
2023-04-02T22:53:46.374Z,96648.78
2023-04-02T22:56:19.017Z,96649.06
2023-04-02T22:58:46.320Z,96640.16
2023-04-02T23:01:25.054Z,96635.06
2023-04-02T23:03:54.669Z,96650.38
2023-04-02T23:06:22.063Z,96643.09
2023-04-02T23:08:49.067Z,96646.88
2023-04-02T23:11:22.112Z,96644.50
2023-04-02T23:13:50.888Z,96645.06
2023-04-02T23:16:17.678Z,96642.06
2023-04-02T23:18:47.958Z,96646.34
2023-04-02T23:21:16.466Z,96650.16
2023-04-02T23:23:43.863Z,96647.44
2023-04-02T23:26:15.086Z,96642.63
2023-04-02T23:28:42.420Z,96646.66
2023-04-02T23:31:14.473Z,96652.03
2023-04-02T23:33:41.363Z,96642.91
2023-04-02T23:36:19.184Z,96641.28
2023-04-02T23:38:45.830Z,96643.97
2023-04-02T23:41:16.615Z,96648.84
2023-04-02T23:43:44.097Z,96634.84
2023-04-02T23:46:10.997Z,96642.41
2023-04-02T23:48:37.868Z,96642.94
2023-04-02T23:51:05.089Z,96641.88
2023-04-02T23:53:33.395Z,96650.78
2023-04-02T23:56:00.432Z,96634.94
2023-04-02T23:58:27.050Z,96643.53
